Time;durP1;ratioP1;P1;durP2;ratioP2;P2;SDS_P1;SDS_P2;PMS_P1;PMS_P2;Temp;Humidity;BMP_temperature;BMP_pressure;BME280_temperature;BME280_humidity;BME280_pressure;Samples;Min_cycle;Max_cycle;Signal;HPM_P1;HPM_P2
2022/03/27 00:00:44;;;;;;;27.23;15.43;;;;;;;3.62;70.57;95624.03;5040634;28;20195;-64
2022/03/27 00:03:30;;;;;;;27.43;15.37;;;;;;;3.52;70.00;95604.03;5016989;28;20236;-66
2022/03/27 00:06:15;;;;;;;28.77;17.00;;;;;;;3.62;70.24;95632.91;5026030;28;20286;-64
2022/03/27 00:09:02;;;;;;;31.47;17.33;;;;;;;3.48;70.35;95626.78;5038436;28;20194;-60
2022/03/27 00:11:48;;;;;;;27.30;15.07;;;;;;;3.30;71.27;95626.09;4995117;28;20261;-61
2022/03/27 00:14:34;;;;;;;28.50;16.17;;;;;;;3.24;72.07;95625.00;5033301;28;20198;-62
2022/03/27 00:17:20;;;;;;;29.43;16.57;;;;;;;3.18;72.76;95621.91;5031158;28;20600;-63
2022/03/27 00:20:10;;;;;;;31.20;18.27;;;;;;;3.22;72.65;95616.50;5028253;28;20190;-63
2022/03/27 00:22:55;;;;;;;31.20;16.20;;;;;;;3.22;72.18;95619.22;5023983;28;20210;-61
2022/03/27 00:25:43;;;;;;;28.60;17.53;;;;;;;3.09;72.64;95618.88;5041398;28;20194;-60
2022/03/27 00:28:32;;;;;;;31.90;16.87;;;;;;;2.99;73.31;95611.59;4986775;28;20214;-60
2022/03/27 00:31:19;;;;;;;29.33;16.93;;;;;;;2.95;74.38;95610.06;5032365;28;20190;-61
2022/03/27 00:34:05;;;;;;;28.07;17.30;;;;;;;2.87;74.94;95611.25;5030700;28;20204;-60
2022/03/27 00:36:51;;;;;;;29.23;17.33;;;;;;;2.86;75.39;95618.56;5045129;28;20652;-60
2022/03/27 00:39:37;;;;;;;29.07;16.73;;;;;;;2.84;75.45;95615.47;5039502;28;20378;-64
2022/03/27 00:42:23;;;;;;;26.50;17.10;;;;;;;2.82;74.92;95617.78;5040844;28;20223;-64
2022/03/27 00:45:09;;;;;;;29.77;18.77;;;;;;;2.81;75.08;95610.88;5009591;28;20209;-60
2022/03/27 00:47:55;;;;;;;30.30;18.53;;;;;;;2.72;75.82;95607.03;5034935;28;20273;-60
2022/03/27 00:50:41;;;;;;;29.47;17.67;;;;;;;2.79;76.15;95615.09;5022439;28;20275;-60
2022/03/27 00:53:27;;;;;;;29.87;18.03;;;;;;;2.79;76.78;95607.00;5044758;28;20255;-61
2022/03/27 00:56:13;;;;;;;30.43;18.37;;;;;;;2.91;76.28;95604.69;5027930;28;20607;-64
2022/03/27 00:58:59;;;;;;;29.87;16.63;;;;;;;2.80;76.27;95614.72;5040776;28;20225;-63
2022/03/27 01:01:45;;;;;;;28.13;17.03;;;;;;;2.80;77.58;95616.66;5021110;28;20569;-65
2022/03/27 01:04:31;;;;;;;29.00;18.07;;;;;;;3.09;76.90;95604.63;5021578;28;20194;-65
2022/03/27 01:07:18;;;;;;;32.07;18.43;;;;;;;3.05;76.61;95609.25;5036848;28;20226;-65
2022/03/27 01:10:05;;;;;;;27.00;17.93;;;;;;;2.64;78.18;95619.00;5043350;28;20742;-65
2022/03/27 01:12:51;;;;;;;28.67;17.33;;;;;;;2.59;79.09;95608.59;5014229;28;20194;-65
2022/03/27 01:15:43;;;;;;;25.20;16.13;;;;;;;2.31;80.49;95610.19;5036194;28;20230;-63
2022/03/27 01:18:29;;;;;;;24.00;16.47;;;;;;;2.39;79.96;95600.94;5017825;28;20353;-63
2022/03/27 01:21:15;;;;;;;29.10;17.63;;;;;;;2.24;79.60;95599.41;5051874;28;20190;-63
2022/03/27 01:24:02;;;;;;;31.73;17.07;;;;;;;1.91;81.10;95607.13;5050052;28;20274;-63
2022/03/27 01:26:48;;;;;;;28.00;17.87;;;;;;;1.86;81.81;95597.50;5037003;28;20273;-63
2022/03/27 01:29:34;;;;;;;26.07;16.80;;;;;;;1.71;82.56;95584.41;5017422;28;20195;-63
2022/03/27 01:32:20;;;;;;;28.53;16.87;;;;;;;1.76;82.85;95586.72;5051193;28;20524;-63
2022/03/27 01:35:07;;;;;;;34.93;16.90;;;;;;;1.87;82.42;95592.88;5046059;28;20198;-60
2022/03/27 01:37:52;;;;;;;28.13;17.43;;;;;;;1.67;83.14;95586.31;5019239;28;20234;-61
2022/03/27 01:40:38;;;;;;;30.33;18.93;;;;;;;1.76;84.39;95578.66;5048739;28;20205;-60
2022/03/27 01:43:24;;;;;;;27.83;17.23;;;;;;;2.33;82.76;95585.53;5014841;28;20199;-65
2022/03/27 01:46:10;;;;;;;32.67;17.83;;;;;;;2.18;81.86;95600.97;5034553;28;20248;-65
2022/03/27 01:48:58;;;;;;;27.70;17.90;;;;;;;2.33;80.75;95591.72;5034196;28;20667;-65
2022/03/27 01:51:44;;;;;;;26.83;16.73;;;;;;;2.03;82.22;95583.28;5018733;28;20241;-60
2022/03/27 01:54:30;;;;;;;28.93;17.43;;;;;;;1.68;83.48;95585.19;5032506;28;20283;-65
2022/03/27 01:57:16;;;;;;;25.67;16.73;;;;;;;1.61;85.68;95577.09;5013446;28;20254;-60
2022/03/27 02:00:04;;;;;;;28.97;15.63;;;;;;;1.76;87.07;95595.56;5036384;28;20198;-61
2022/03/27 02:02:59;;;;;;;31.17;16.73;;;;;;;1.94;82.92;95590.97;5020087;28;20183;-61
2022/03/27 02:05:45;;;;;;;26.87;15.67;;;;;;;1.95;82.76;95586.34;5015599;28;20632;-60
2022/03/27 02:08:35;;;;;;;25.40;15.63;;;;;;;1.90;85.42;95594.81;5019415;28;20210;-60
2022/03/27 02:11:22;;;;;;;28.17;16.63;;;;;;;2.02;84.61;95587.09;5033615;28;20209;-60
2022/03/27 02:14:08;;;;;;;27.03;16.50;;;;;;;1.79;84.53;95596.72;5044872;28;20190;-60
2022/03/27 02:16:54;;;;;;;25.67;15.93;;;;;;;1.63;86.08;95590.94;5040134;28;20333;-60
2022/03/27 02:19:40;;;;;;;25.93;16.13;;;;;;;1.56;85.62;95594.38;5031204;28;20210;-60
2022/03/27 02:22:26;;;;;;;27.20;16.77;;;;;;;1.49;87.58;95589.00;5038322;28;20197;-60
2022/03/27 02:25:12;;;;;;;24.20;15.17;;;;;;;1.65;86.75;95585.94;5042200;28;20218;-64
2022/03/27 02:27:57;;;;;;;29.47;16.90;;;;;;;1.57;86.77;95585.16;5037704;28;20226;-64
2022/03/27 02:30:44;;;;;;;25.13;16.57;;;;;;;1.61;85.22;95585.16;5032941;28;20252;-64
2022/03/27 02:33:30;;;;;;;28.47;17.10;;;;;;;1.32;86.50;95588.97;5033714;28;20260;-64
2022/03/27 02:36:16;;;;;;;24.70;16.30;;;;;;;1.34;86.90;95589.34;5044831;28;20198;-64
2022/03/27 02:39:03;;;;;;;29.50;17.33;;;;;;;1.19;87.10;95583.94;5034806;28;20217;-64
2022/03/27 02:41:49;;;;;;;27.83;16.10;;;;;;;1.24;87.81;95577.41;5034063;28;20218;-64
2022/03/27 02:44:35;;;;;;;27.10;16.00;;;;;;;1.14;89.25;95592.38;5024157;28;20262;-64
2022/03/27 02:47:21;;;;;;;26.73;16.87;;;;;;;1.30;88.23;95583.97;5044986;28;20303;-64
2022/03/27 02:50:07;;;;;;;25.50;15.43;;;;;;;1.24;86.95;95583.56;5048822;28;20243;-64
2022/03/27 02:52:53;;;;;;;25.63;16.47;;;;;;;1.44;88.25;95581.31;5043010;28;20641;-64
2022/03/27 02:55:39;;;;;;;28.40;17.40;;;;;;;0.97;88.31;95568.88;5032412;28;20675;-64
2022/03/27 02:58:26;;;;;;;25.67;16.37;;;;;;;0.95;88.89;95579.22;5011888;28;20805;-64
2022/03/27 03:01:12;;;;;;;32.53;17.80;;;;;;;1.14;88.71;95592.38;5032113;28;20198;-64
2022/03/27 03:03:58;;;;;;;29.60;17.60;;;;;;;0.92;90.17;95582.69;5033201;28;20836;-64
2022/03/27 03:06:44;;;;;;;26.13;16.60;;;;;;;1.11;91.32;95585.06;5037367;28;20284;-64
2022/03/27 03:09:30;;;;;;;27.77;16.80;;;;;;;1.27;88.82;95582.03;5024061;28;20199;-65
2022/03/27 03:12:16;;;;;;;26.90;16.30;;;;;;;1.41;88.95;95576.66;5036632;28;20289;-65
2022/03/27 03:15:03;;;;;;;38.57;16.00;;;;;;;1.39;87.97;95579.00;5019563;28;20269;-64
2022/03/27 03:17:50;;;;;;;24.93;15.97;;;;;;;1.33;88.25;95583.19;5037809;28;20316;-64
2022/03/27 03:20:37;;;;;;;30.07;17.53;;;;;;;1.26;87.01;95582.41;5031349;28;20274;-64
2022/03/27 03:23:23;;;;;;;26.27;15.80;;;;;;;0.76;89.49;95581.47;5038058;28;20194;-64
2022/03/27 03:26:09;;;;;;;27.53;15.20;;;;;;;0.76;90.12;95579.56;5035210;28;20198;-64
2022/03/27 03:28:55;;;;;;;25.23;15.37;;;;;;;0.67;91.42;95578.34;5035860;28;20209;-64
2022/03/27 03:31:40;;;;;;;24.87;14.83;;;;;;;0.64;91.66;95584.47;5039041;28;20315;-65
2022/03/27 03:34:26;;;;;;;28.97;15.57;;;;;;;0.51;92.38;95583.28;5029294;28;20983;-63
2022/03/27 03:37:12;;;;;;;24.57;15.13;;;;;;;0.27;94.43;95595.41;5039932;28;20214;-63
2022/03/27 03:39:59;;;;;;;33.70;16.70;;;;;;;0.33;94.42;95596.59;5041924;28;20197;-63
2022/03/27 03:42:45;;;;;;;25.03;16.93;;;;;;;0.19;95.27;95587.69;5041142;28;20206;-63
2022/03/27 03:45:31;;;;;;;26.30;15.20;;;;;;;0.24;95.45;95576.59;5047011;28;20194;-63
2022/03/27 03:48:18;;;;;;;22.67;14.87;;;;;;;0.36;94.82;95587.00;5042621;28;20225;-63
2022/03/27 03:51:03;;;;;;;25.40;16.03;;;;;;;0.15;96.01;95586.88;5037051;28;20273;-63
2022/03/27 03:53:49;;;;;;;25.20;15.17;;;;;;;0.36;97.13;95590.47;5045248;28;20269;-63
2022/03/27 03:56:38;;;;;;;25.63;15.43;;;;;;;0.50;97.12;95581.72;5047389;28;20202;-63
2022/03/27 03:59:23;;;;;;;28.20;16.23;;;;;;;0.43;94.09;95587.03;5009343;28;20640;-63
2022/03/27 04:02:13;;;;;;;30.07;17.07;;;;;;;0.54;95.33;95577.91;5021692;28;20245;-63
2022/03/27 04:05:01;;;;;;;29.80;16.27;;;;;;;0.33;95.22;95577.78;5024250;28;20683;-63
2022/03/27 04:07:47;;;;;;;28.27;16.00;;;;;;;0.62;93.62;95576.00;5018126;28;20218;-63
2022/03/27 04:10:32;;;;;;;25.53;14.37;;;;;;;0.42;93.58;95577.44;5040337;28;20194;-65
2022/03/27 04:13:18;;;;;;;27.57;16.27;;;;;;;0.41;93.17;95576.66;5027994;28;20203;-65
2022/03/27 04:16:04;;;;;;;25.73;16.63;;;;;;;0.27;95.15;95576.59;5017571;28;20190;-65
2022/03/27 04:18:50;;;;;;;29.83;17.00;;;;;;;0.30;94.91;95612.69;5038636;28;20210;-65
2022/03/27 04:21:36;;;;;;;25.90;15.00;;;;;;;0.16;95.67;95577.66;5046584;28;20206;-65
2022/03/27 04:24:22;;;;;;;27.37;16.10;;;;;;;0.36;95.03;95579.72;5028309;28;20683;-65
2022/03/27 04:27:08;;;;;;;25.53;15.33;;;;;;;0.32;94.58;95583.53;5026994;28;20722;-65
2022/03/27 04:29:54;;;;;;;23.30;15.03;;;;;;;0.50;95.57;95585.19;5033079;28;20269;-65
2022/03/27 04:32:40;;;;;;;25.83;15.27;;;;;;;0.39;94.24;95589.69;5038106;28;20230;-65
2022/03/27 04:35:26;;;;;;;23.57;15.30;;;;;;;0.36;94.39;95589.69;5048838;28;20208;-65
2022/03/27 04:38:13;;;;;;;29.83;15.43;;;;;;;0.21;94.65;95583.47;5044870;28;20222;-65
2022/03/27 04:40:59;;;;;;;30.03;17.43;;;;;;;0.52;96.70;95576.72;5023475;28;20194;-65
2022/03/27 04:43:47;;;;;;;27.33;15.23;;;;;;;0.25;95.43;95576.22;5039855;28;20192;-65
2022/03/27 04:46:33;;;;;;;24.67;15.30;;;;;;;0.42;96.53;95588.97;5049437;28;20183;-65
2022/03/27 04:49:19;;;;;;;25.97;15.10;;;;;;;0.32;95.52;95588.91;5031921;28;20256;-65
2022/03/27 04:52:05;;;;;;;25.23;14.73;;;;;;;0.40;93.75;95585.88;5012822;28;21162;-65
2022/03/27 04:54:50;;;;;;;25.77;15.40;;;;;;;0.24;94.39;95577.34;5041365;28;20714;-65
2022/03/27 04:57:39;;;;;;;30.17;15.93;;;;;;;0.07;96.94;95577.97;5032087;28;20646;-65
2022/03/27 05:00:25;;;;;;;28.70;15.90;;;;;;;0.00;96.41;95577.97;5043915;28;20252;-65
2022/03/27 05:03:11;;;;;;;25.03;15.80;;;;;;;-0.21;97.13;95577.78;5048500;28;20194;-65
2022/03/27 05:05:57;;;;;;;26.10;16.07;;;;;;;0.00;97.45;95584.09;5029991;28;20195;-63
2022/03/27 05:08:44;;;;;;;27.13;15.80;;;;;;;-0.03;99.36;95579.47;5038352;28;20240;-63
2022/03/27 05:11:30;;;;;;;22.67;14.87;;;;;;;0.11;98.84;95586.06;5029871;28;20244;-63
2022/03/27 05:14:16;;;;;;;24.50;15.67;;;;;;;0.36;97.02;95581.63;5049718;28;20194;-63
2022/03/27 05:17:04;;;;;;;23.87;15.60;;;;;;;0.32;95.67;95584.31;5042827;28;20238;-63
2022/03/27 05:19:50;;;;;;;24.67;14.93;;;;;;;0.18;96.41;95599.56;5018030;28;20285;-65
2022/03/27 05:22:40;;;;;;;26.50;15.33;;;;;;;0.15;95.64;95586.88;5042794;28;20658;-63
2022/03/27 05:25:26;;;;;;;24.97;15.43;;;;;;;0.34;96.97;95584.69;5051225;28;20195;-64
2022/03/27 05:28:14;;;;;;;25.13;14.53;;;;;;;-0.09;97.05;95580.97;5049474;28;20210;-65
2022/03/27 05:31:01;;;;;;;25.10;15.10;;;;;;;0.03;98.27;95584.47;5041128;28;20198;-65
2022/03/27 05:33:46;;;;;;;25.07;15.73;;;;;;;0.48;97.49;95579.41;5050911;28;20263;-65
2022/03/27 05:36:32;;;;;;;25.90;15.13;;;;;;;0.49;95.82;95588.25;5044430;28;20199;-60
2022/03/27 05:39:19;;;;;;;24.20;13.80;;;;;;;0.82;94.31;95585.31;5034266;28;20226;-65
2022/03/27 05:42:05;;;;;;;29.83;16.20;;;;;;;0.84;93.56;95580.34;5038817;28;20233;-64
2022/03/27 05:44:51;;;;;;;23.13;15.47;;;;;;;0.74;93.58;95583.75;5042148;28;20194;-64
2022/03/27 05:47:38;;;;;;;23.83;15.07;;;;;;;0.87;93.57;95591.13;5033535;28;20218;-64
2022/03/27 05:50:25;;;;;;;24.57;16.03;;;;;;;0.82;93.95;95598.75;5044051;28;20199;-64
2022/03/27 05:53:11;;;;;;;28.13;15.07;;;;;;;0.66;93.41;95599.06;5034833;28;20190;-64
2022/03/27 05:55:59;;;;;;;25.03;15.77;;;;;;;0.50;95.32;95587.88;5049997;28;20201;-64
2022/03/27 05:58:44;;;;;;;25.87;15.60;;;;;;;0.60;95.46;95587.16;5046116;28;20235;-65
2022/03/27 06:01:30;;;;;;;26.40;15.87;;;;;;;0.79;94.78;95599.53;5043965;28;20248;-65
2022/03/27 06:04:16;;;;;;;34.03;15.53;;;;;;;0.70;95.06;95594.50;5045040;28;20245;-65
2022/03/27 06:07:02;;;;;;;25.17;15.73;;;;;;;0.93;95.22;95592.28;5043371;28;20217;-65
2022/03/27 06:09:48;;;;;;;29.03;17.17;;;;;;;1.27;94.86;95585.47;5043335;28;20187;-65
2022/03/27 06:12:34;;;;;;;28.70;16.00;;;;;;;1.05;93.36;95593.88;5025066;28;20798;-63
2022/03/27 06:15:21;;;;;;;28.23;15.57;;;;;;;1.13;94.36;95592.75;5046088;28;20264;-63
2022/03/27 06:18:10;;;;;;;22.67;15.37;;;;;;;1.51;93.11;95594.75;4995595;28;21224;-65
2022/03/27 06:20:56;;;;;;;29.07;15.83;;;;;;;1.55;90.47;95592.84;5047136;28;20675;-65
2022/03/27 06:23:42;;;;;;;26.73;15.23;;;;;;;1.69;92.47;95592.88;5050788;28;21061;-66
2022/03/27 06:26:28;;;;;;;26.80;15.23;;;;;;;1.79;91.88;95586.72;5048048;28;20217;-65
2022/03/27 06:29:14;;;;;;;26.03;15.90;;;;;;;1.97;91.51;95600.97;5048149;28;20256;-65
2022/03/27 06:32:00;;;;;;;21.80;14.47;;;;;;;2.19;89.92;95586.34;5050365;28;20268;-65
2022/03/27 06:34:46;;;;;;;23.93;15.30;;;;;;;2.40;87.93;95583.63;5038707;28;20197;-65
2022/03/27 06:37:33;;;;;;;24.80;14.90;;;;;;;2.49;86.92;95594.75;5040644;28;20206;-59
2022/03/27 06:40:20;;;;;;;23.67;14.97;;;;;;;2.49;87.40;95588.63;5039601;28;20571;-59
2022/03/27 06:43:07;;;;;;;30.93;15.83;;;;;;;3.05;86.12;95591.16;5042619;28;20711;-60
2022/03/27 06:45:53;;;;;;;25.23;16.50;;;;;;;3.71;82.98;95581.13;5030530;28;20257;-60
2022/03/27 06:48:39;;;;;;;27.93;15.23;;;;;;;4.17;81.28;95588.91;5025254;28;20221;-60
2022/03/27 06:51:25;;;;;;;33.57;16.23;;;;;;;4.65;78.05;95590.38;5031745;28;20732;-64
2022/03/27 06:54:11;;;;;;;27.37;16.90;;;;;;;4.97;75.27;95583.88;5043934;28;20604;-59
2022/03/27 06:56:57;;;;;;;24.07;15.93;;;;;;;5.19;74.75;95585.16;5020091;28;20221;-66
2022/03/27 07:03:02;;;;;;;24.50;14.60;;;;;;;6.33;69.00;95580.44;5037273;28;20213;-66
2022/03/27 07:05:48;;;;;;;30.03;14.80;;;;;;;6.81;66.96;95586.16;5049462;28;20225;-66
2022/03/27 07:08:34;;;;;;;20.93;14.50;;;;;;;7.11;66.44;95586.72;5011527;28;20346;-64
2022/03/27 07:11:21;;;;;;;21.03;15.37;;;;;;;7.20;65.44;95595.09;5039592;28;20194;-64
2022/03/27 07:14:07;;;;;;;25.83;14.90;;;;;;;7.08;67.60;95592.22;5037529;28;20199;-60
2022/03/27 07:16:53;;;;;;;26.60;15.93;;;;;;;6.86;69.08;95597.31;5044605;28;20681;-61
2022/03/27 07:19:39;;;;;;;25.63;16.97;;;;;;;6.84;70.74;95601.59;5033732;28;20222;-62
2022/03/27 07:22:26;;;;;;;24.60;16.57;;;;;;;6.98;68.76;95601.34;5021549;28;20246;-64
2022/03/27 07:25:13;;;;;;;22.37;14.70;;;;;;;7.12;65.88;95601.09;5034587;28;20199;-65
2022/03/27 07:27:59;;;;;;;25.20;15.80;;;;;;;7.20;65.17;95607.91;5035275;28;20222;-61
2022/03/27 07:30:48;;;;;;;23.30;15.60;;;;;;;7.29;65.99;95611.63;5019930;28;20190;-64
2022/03/27 07:33:34;;;;;;;24.50;14.97;;;;;;;7.54;65.56;95605.66;5047314;28;20199;-61
2022/03/27 07:36:20;;;;;;;24.17;15.50;;;;;;;7.80;64.36;95610.16;5045149;28;20290;-64
2022/03/27 07:39:06;;;;;;;22.03;15.27;;;;;;;8.02;65.26;95603.06;5031117;28;20728;-62
2022/03/27 07:41:52;;;;;;;23.20;16.13;;;;;;;8.28;62.06;95593.16;5039923;28;20259;-64
2022/03/27 07:44:38;;;;;;;32.97;15.40;;;;;;;8.60;60.01;95595.09;5014781;28;20209;-66
2022/03/27 07:47:24;;;;;;;28.80;16.33;;;;;;;8.91;56.99;95597.00;5035136;28;20218;-66
2022/03/27 07:50:11;;;;;;;29.23;16.53;;;;;;;9.17;55.22;95590.47;5039781;28;20186;-66
2022/03/27 07:52:59;;;;;;;26.53;16.20;;;;;;;9.40;54.45;95589.44;5033705;28;20199;-65
2022/03/27 07:55:45;;;;;;;27.63;15.80;;;;;;;9.59;53.37;95596.66;5016650;28;20209;-65
2022/03/27 07:58:31;;;;;;;25.70;15.77;;;;;;;9.81;52.90;95583.19;5037978;28;20304;-64
2022/03/27 08:01:18;;;;;;;26.53;16.47;;;;;;;10.14;52.65;95587.25;5022140;28;20643;-63
2022/03/27 08:04:05;;;;;;;22.63;15.60;;;;;;;10.48;52.73;95584.59;5041660;28;20270;-64
2022/03/27 08:06:51;;;;;;;29.80;16.30;;;;;;;10.83;52.00;95588.88;5027899;28;20191;-61
2022/03/27 08:09:37;;;;;;;24.63;15.97;;;;;;;11.00;50.18;95582.06;5038510;28;20226;-63
2022/03/27 08:12:23;;;;;;;23.07;15.10;;;;;;;11.05;50.54;95573.28;5046357;28;20202;-63
2022/03/27 08:15:09;;;;;;;25.73;15.90;;;;;;;11.43;50.18;95581.31;5038733;28;20233;-64
2022/03/27 08:17:55;;;;;;;26.33;15.77;;;;;;;11.69;48.77;95585.47;5035813;28;20390;-65
2022/03/27 08:20:41;;;;;;;27.10;17.20;;;;;;;11.76;49.35;95575.00;5019968;28;20191;-64
2022/03/27 08:23:27;;;;;;;21.67;15.10;;;;;;;12.15;48.48;95579.75;5042669;28;20194;-66
2022/03/27 08:29:17;;;;;;;23.07;15.90;;;;;;;12.59;48.52;95571.38;5034695;28;20187;-66
2022/03/27 08:32:06;;;;;;;23.20;14.60;;;;;;;12.53;47.95;95567.69;5023594;28;20202;-65
2022/03/27 08:34:52;;;;;;;21.93;15.30;;;;;;;12.80;47.63;95576.75;5019306;28;20201;-64
2022/03/27 08:37:37;;;;;;;26.63;14.77;;;;;;;13.21;46.47;95572.69;5028932;28;20242;-65
2022/03/27 08:40:23;;;;;;;24.57;14.77;;;;;;;13.31;44.87;95572.22;5019061;28;20263;-65
2022/03/27 08:43:14;;;;;;;21.60;14.93;;;;;;;13.29;43.35;95566.44;5040217;28;20655;-66
2022/03/27 08:46:01;;;;;;;22.93;15.67;;;;;;;13.58;43.86;95578.88;5034085;28;20241;-65
2022/03/27 08:48:50;;;;;;;23.90;14.30;;;;;;;13.82;42.88;95575.03;5017481;28;20718;-65
2022/03/27 08:51:57;;;;;;;23.40;15.17;;;;;;;13.95;41.23;95577.56;5020812;28;20195;-65
2022/03/27 08:54:59;;;;;;;22.87;15.30;;;;;;;14.09;41.27;95577.69;5036995;28;20293;-62
2022/03/27 08:57:47;;;;;;;25.23;15.03;;;;;;;14.30;39.84;95578.72;5029193;28;20218;-62
2022/03/27 09:00:33;;;;;;;24.30;15.23;;;;;;;14.24;39.54;95575.03;5021463;28;20260;-62
2022/03/27 09:03:21;;;;;;;24.37;16.37;;;;;;;14.38;39.17;95583.41;5031630;28;20207;-61
2022/03/27 09:06:08;;;;;;;27.67;15.43;;;;;;;14.47;39.35;95586.09;5034830;28;20226;-66
2022/03/27 09:08:54;;;;;;;26.17;15.20;;;;;;;14.71;38.84;95585.38;5018611;28;20285;-62
2022/03/27 09:11:40;;;;;;;19.70;14.47;;;;;;;15.09;38.71;95583.44;5039329;28;20558;-62
2022/03/27 09:14:27;;;;;;;21.70;15.50;;;;;;;15.22;38.58;95578.44;5025886;28;20217;-66
2022/03/27 09:17:14;;;;;;;24.03;15.90;;;;;;;15.47;37.80;95588.22;5037590;28;20286;-66
2022/03/27 09:20:00;;;;;;;24.90;15.37;;;;;;;15.75;37.70;95583.97;5043629;28;20198;-63
2022/03/27 09:22:46;;;;;;;27.17;16.10;;;;;;;15.82;37.32;95583.59;5024328;28;20444;-62
2022/03/27 09:25:43;;;;;;;20.37;15.23;;;;;;;15.84;36.96;95588.63;5023829;28;20375;-64
2022/03/27 09:28:41;;;;;;;20.37;14.40;;;;;;;15.96;36.81;95588.34;5034356;28;20420;-65
2022/03/27 09:31:28;;;;;;;21.63;15.50;;;;;;;15.76;36.62;95579.22;5028587;28;20207;-65
2022/03/27 09:34:13;;;;;;;22.33;14.57;;;;;;;16.18;37.30;95585.19;5035829;28;20276;-65
2022/03/27 09:37:00;;;;;;;22.93;15.03;;;;;;;16.08;35.96;95581.03;5020131;28;20226;-65
2022/03/27 09:39:56;;;;;;;24.17;16.50;;;;;;;15.83;35.65;95578.84;5040943;28;20758;-65
2022/03/27 09:42:43;;;;;;;19.80;15.43;;;;;;;15.80;36.19;95577.06;5040558;28;20199;-65
2022/03/27 09:45:29;;;;;;;23.00;15.53;;;;;;;15.84;36.73;95577.59;5033211;28;20195;-65
2022/03/27 09:48:15;;;;;;;24.40;15.03;;;;;;;15.88;34.68;95576.19;5044649;28;20224;-61
2022/03/27 09:51:01;;;;;;;23.63;15.43;;;;;;;15.87;35.22;95574.66;5021268;28;20269;-62
2022/03/27 09:53:56;;;;;;;22.10;15.07;;;;;;;16.11;35.87;95575.31;5030293;28;20282;-62
2022/03/27 09:56:42;;;;;;;19.90;14.97;;;;;;;16.26;35.04;95572.53;5046338;28;20256;-62
2022/03/27 09:59:34;;;;;;;21.63;14.67;;;;;;;16.49;35.31;95569.66;5031617;28;20275;-62
2022/03/27 10:02:25;;;;;;;21.13;14.53;;;;;;;16.16;35.37;95574.66;5048570;28;20194;-62
2022/03/27 10:05:19;;;;;;;20.27;14.77;;;;;;;16.09;34.43;95571.50;5015665;28;20201;-62
2022/03/27 10:08:06;;;;;;;20.77;14.53;;;;;;;16.10;34.44;95571.06;5038562;28;20207;-63
2022/03/27 10:10:53;;;;;;;22.43;15.53;;;;;;;15.96;34.32;95571.81;5037909;28;20622;-62
2022/03/27 10:13:39;;;;;;;21.57;14.93;;;;;;;15.86;34.37;95569.63;5036200;28;20221;-65
2022/03/27 10:16:32;;;;;;;22.57;15.20;;;;;;;15.79;35.08;95572.75;5046586;28;20203;-65
2022/03/27 10:19:22;;;;;;;25.17;15.37;;;;;;;16.08;35.13;95561.72;5039481;28;20683;-65
2022/03/27 10:22:11;;;;;;;24.63;15.90;;;;;;;16.07;34.18;95566.47;5049890;28;20197;-64
2022/03/27 10:25:02;;;;;;;24.00;16.10;;;;;;;15.82;34.06;95558.78;5050730;28;20248;-64
2022/03/27 10:27:48;;;;;;;25.83;16.73;;;;;;;16.15;34.01;95562.13;5034172;28;20222;-62
2022/03/27 10:30:34;;;;;;;20.63;15.60;;;;;;;16.20;33.58;95560.66;5042707;28;20194;-62
2022/03/27 10:33:24;;;;;;;21.17;15.93;;;;;;;16.29;33.32;95557.81;5032512;28;20186;-62
2022/03/27 10:36:20;;;;;;;21.80;14.80;;;;;;;16.47;33.20;95561.13;5039710;28;20190;-65
2022/03/27 10:39:16;;;;;;;21.80;14.43;;;;;;;16.24;33.05;95555.72;5027288;28;20249;-66
2022/03/27 10:42:29;;;;;;;18.87;14.63;;;;;;;16.33;33.07;95550.09;5035699;28;20199;-62
2022/03/27 10:45:18;;;;;;;19.90;14.30;;;;;;;16.38;33.58;95543.91;5034842;28;20286;-62
2022/03/27 10:48:13;;;;;;;22.87;14.97;;;;;;;16.65;33.29;95549.06;5044353;28;20239;-62
2022/03/27 10:50:59;;;;;;;21.53;15.00;;;;;;;16.61;33.10;95541.00;5038416;28;20274;-62
2022/03/27 10:54:00;;;;;;;22.20;13.87;;;;;;;16.54;33.82;95549.69;5016387;28;20231;-62
2022/03/27 10:56:54;;;;;;;19.63;14.27;;;;;;;16.69;33.16;95553.16;5018896;28;20202;-63
2022/03/27 10:59:44;;;;;;;15.90;12.93;;;;;;;16.75;33.25;95542.94;5021718;28;20214;-65
2022/03/27 11:02:46;;;;;;;19.40;13.57;;;;;;;16.92;34.04;95546.69;5044205;28;20272;-66
2022/03/27 11:05:31;;;;;;;17.13;12.53;;;;;;;16.82;33.30;95537.03;5037162;28;20274;-66
2022/03/27 11:08:17;;;;;;;20.10;14.63;;;;;;;16.91;33.36;95527.84;5041837;28;20214;-62
2022/03/27 11:11:03;;;;;;;21.30;13.67;;;;;;;16.73;33.02;95544.69;5038113;28;20373;-63
2022/03/27 11:13:49;;;;;;;20.17;13.30;;;;;;;16.84;32.88;95531.03;5021575;28;20597;-63
2022/03/27 11:17:07;;;;;;;18.60;13.33;;;;;;;17.02;32.97;95522.47;5049136;28;20198;-64
2022/03/27 11:19:52;;;;;;;21.30;14.00;;;;;;;17.20;31.67;95527.72;5028193;28;20636;-66
2022/03/27 11:22:55;;;;;;;19.13;13.80;;;;;;;17.28;32.16;95523.28;5049532;28;20328;-66
2022/03/27 11:25:46;;;;;;;18.13;12.80;;;;;;;17.21;31.52;95525.69;5009904;28;20195;-66
2022/03/27 11:28:50;;;;;;;19.63;12.93;;;;;;;17.22;31.41;95530.75;5046837;28;20333;-66
2022/03/27 11:31:38;;;;;;;19.40;13.57;;;;;;;17.38;31.67;95521.88;5022465;28;20885;-63
2022/03/27 11:34:26;;;;;;;16.27;12.40;;;;;;;17.46;31.54;95525.75;5036749;28;20198;-63
2022/03/27 11:37:25;;;;;;;18.93;12.63;;;;;;;17.25;31.20;95523.47;5040205;28;20225;-63
2022/03/27 11:40:38;;;;;;;17.07;13.30;;;;;;;17.40;31.17;95532.44;5037484;28;20682;-65
2022/03/27 11:43:29;;;;;;;17.27;13.43;;;;;;;17.02;31.73;95518.97;5037509;28;20198;-63
2022/03/27 11:46:36;;;;;;;19.97;13.70;;;;;;;17.39;31.30;95522.63;5028065;28;20289;-63
2022/03/27 11:49:35;;;;;;;19.90;13.10;;;;;;;17.66;31.31;95517.41;5036218;28;20276;-63
2022/03/27 11:52:22;;;;;;;16.83;13.20;;;;;;;17.62;32.48;95518.88;5025389;28;20201;-62
2022/03/27 11:55:10;;;;;;;20.10;13.70;;;;;;;17.80;31.47;95516.53;5031096;28;20230;-63
2022/03/27 11:57:58;;;;;;;17.47;12.67;;;;;;;17.69;31.09;95515.66;4997710;28;20215;-67
2022/03/27 12:00:45;;;;;;;19.67;13.77;;;;;;;17.48;31.30;95508.69;5037398;28;20206;-66
2022/03/27 12:03:31;;;;;;;19.30;14.40;;;;;;;17.42;31.59;95514.13;5041119;28;20202;-67
2022/03/27 12:06:18;;;;;;;19.47;14.03;;;;;;;17.28;31.53;95503.94;5045313;28;20198;-62
2022/03/27 12:09:04;;;;;;;22.17;13.67;;;;;;;17.45;31.41;95490.28;5031186;28;20699;-65
2022/03/27 12:12:12;;;;;;;17.30;13.23;;;;;;;17.51;30.98;95489.13;4991021;28;20923;-64
2022/03/27 12:15:04;;;;;;;17.17;13.40;;;;;;;17.50;30.30;95493.16;5035911;28;20191;-63
2022/03/27 12:17:50;;;;;;;16.80;12.23;;;;;;;17.83;30.20;95481.63;5030278;28;20241;-66
2022/03/27 12:20:41;;;;;;;17.97;13.07;;;;;;;17.53;29.78;95489.41;5023647;28;20232;-65
2022/03/27 12:23:33;;;;;;;17.60;11.63;;;;;;;17.74;31.60;95490.09;5031737;28;20315;-65
2022/03/27 12:29:40;;;;;;;18.80;13.13;;;;;;;18.35;31.13;95485.00;5043304;28;20194;-68
2022/03/27 12:32:27;;;;;;;16.33;11.47;;;;;;;18.19;29.92;95471.84;5047744;28;20209;-64
2022/03/27 12:35:22;;;;;;;17.57;12.43;;;;;;;18.01;29.55;95470.97;5024231;28;20199;-64
2022/03/27 12:38:08;;;;;;;17.57;13.13;;;;;;;17.74;30.38;95501.91;5037319;28;20703;-63
2022/03/27 12:40:54;;;;;;;16.03;13.20;;;;;;;18.26;31.17;95474.16;5036966;28;20191;-63
2022/03/27 12:43:59;;;;;;;17.53;12.70;;;;;;;18.45;29.75;95469.75;5034004;28;20289;-64
2022/03/27 12:46:50;;;;;;;16.60;11.87;;;;;;;17.86;27.14;95464.06;5043569;28;20190;-64
2022/03/27 12:49:50;;;;;;;14.67;10.87;;;;;;;18.24;30.39;95465.59;5021246;28;20186;-64
2022/03/27 12:52:47;;;;;;;16.53;12.97;;;;;;;18.23;29.62;95464.06;5037644;28;20202;-64
2022/03/27 12:55:49;;;;;;;17.60;13.10;;;;;;;18.08;29.16;95462.22;5047640;28;20270;-63
2022/03/27 12:58:41;;;;;;;18.70;12.97;;;;;;;18.06;30.32;95461.97;5037178;28;20298;-64
2022/03/27 13:01:30;;;;;;;23.97;12.67;;;;;;;18.17;29.42;95463.28;5044842;28;20191;-64
2022/03/27 13:04:16;;;;;;;18.80;13.20;;;;;;;18.04;30.37;95463.69;5031551;28;20206;-64
2022/03/27 13:07:03;;;;;;;17.73;12.97;;;;;;;18.04;29.64;95455.41;5026386;28;20214;-67